Bowie, MD (20715)

12:10 AM EDT on September 01, 2016 (GMT -0400)
Tinder Place | | Change Station

Elev 134 ft 38.97 °N, 76.75 °W | Updated 11 minutes ago

Scattered Clouds
Scattered Clouds
77.0 °F
Feels Like 79 °F
N
0.6
Wind Variable Wind from SSW
Gusts 1.9 mph

Today
High -- | Low -- °F
--% Chance of Precip.
Yesterday
High -- | Low -- °F
Precip. -- in
Pressure 29.92 in
Visibility 10.0 miles
Clouds Scattered Clouds 3000 ft
Scattered Clouds 5000 ft
Heat Index 79 °F
Dew Point 69 °F
Humidity 76%
Rainfall in
Snow Depth Not available.
6:36 AM 7:36 PM
Waning Crescent, 0% visible
METAR KFME 010403Z AUTO 27005KT 10SM SCT030 SCT050 21/20 A2992 RMK AO1
Pressure 29.92 in
Visibility 10.0 miles
Clouds Scattered Clouds 3000 ft
Scattered Clouds 5000 ft
Heat Index 79 °F
Dew Point 69 °F
Humidity 76%
Rainfall in
Snow Depth Not available.
6:36 AM 7:36 PM
Waning Crescent, 0% visible
METAR KFME 010403Z AUTO 27005KT 10SM SCT030 SCT050 21/20 A2992 RMK AO1

10-Day Weather Forecast

Almanac

Astronomy

Sep. 01, 2016 Rise Set
Actual Time
Civil Twilight
Nautical Twilight
Astronomical Twilight
Moon
Length of Visible Light
Length of Day
Tomorrow will be .
, % of the Moon is Illuminated

Today's Extremes

State Highs State Lows

Community

WunderPhotos

Upload Photos

1,936,293 photos uploaded!

WunderBlog® & News

Nearby

Air Quality

  Air Quality AQ Index Pollutant
Not available.

Snow Depth

Station Depth Elevation

Earthquake Activity

City Distance Mag. Time & Date
Minimum magnitude displayed is 2.5.

Coastal Water Temperatures

Place Temperature

Stations

Nearby Weather Stations

Station Location Temp. Windchill Dew Point Humidity Wind Precip. Elev Updated Type
                   

Watches & Warnings

There are currently no watches in effect.